createdAt,value
2022-09-07T00:01:40.034Z,101328.72
2022-09-07T00:04:30.191Z,101328.77
2022-09-07T00:07:19.945Z,101331.56
2022-09-07T00:10:11.481Z,101327.56
2022-09-07T00:13:01.193Z,101313.73
2022-09-07T00:15:51.118Z,101297.36
2022-09-07T00:18:45.602Z,101290.58
2022-09-07T00:21:36.552Z,101291.60
2022-09-07T00:24:26.504Z,101287.44
2022-09-07T00:27:16.367Z,101277.27
2022-09-07T00:30:07.261Z,101273.15
2022-09-07T00:32:57.521Z,101271.13
2022-09-07T00:35:48.192Z,101273.32
2022-09-07T00:38:38.555Z,101279.61
2022-09-07T00:41:29.067Z,101277.09
2022-09-07T00:44:53.944Z,101266.20
2022-09-07T00:47:53.241Z,101253.55
2022-09-07T00:50:47.692Z,101253.14
2022-09-07T00:53:41.735Z,101258.45
2022-09-07T00:56:34.507Z,101260.51
2022-09-07T00:59:28.152Z,101254.98
2022-09-07T01:02:18.918Z,101255.73
2022-09-07T01:05:16.951Z,101248.36
2022-09-07T01:08:07.584Z,101237.32
2022-09-07T01:10:59.235Z,101228.84
2022-09-07T01:13:54.632Z,101223.11
2022-09-07T01:17:00.127Z,101227.60
2022-09-07T01:20:32.283Z,101238.60
2022-09-07T01:23:53.831Z,101250.62
2022-09-07T01:27:09.274Z,101252.27
2022-09-07T01:30:06.356Z,101248.56
2022-09-07T01:33:10.177Z,101246.34
2022-09-07T01:36:12.952Z,101255.69
2022-09-07T01:39:05.845Z,101260.26
2022-09-07T01:41:59.654Z,101258.19
2022-09-07T01:44:54.488Z,101248.55
2022-09-07T01:47:48.950Z,101248.90
2022-09-07T01:50:45.534Z,101254.66
2022-09-07T01:53:39.632Z,101255.44
2022-09-07T01:56:36.255Z,101245.88
2022-09-07T01:59:30.464Z,101244.48
2022-09-07T02:02:23.283Z,101250.50
2022-09-07T02:05:18.599Z,101250.38
2022-09-07T02:08:14.599Z,101254.77
2022-09-07T02:11:08.717Z,101257.04
2022-09-07T02:14:03.033Z,101260.95
2022-09-07T02:16:58.234Z,101256.36
2022-09-07T02:19:52.283Z,101250.75
2022-09-07T02:22:45.594Z,101253.58
2022-09-07T02:25:41.883Z,101249.26
2022-09-07T02:28:34.444Z,101243.86
2022-09-07T02:31:24.418Z,101239.50
2022-09-07T02:34:14.557Z,101242.66
2022-09-07T02:37:07.657Z,101243.61
2022-09-07T02:39:58.274Z,101244.81
2022-09-07T02:42:49.952Z,101243.17
2022-09-07T02:45:56.463Z,101241.69
2022-09-07T02:49:01.711Z,101239.09
2022-09-07T02:52:03.987Z,101231.46
2022-09-07T02:55:08.341Z,101226.08
2022-09-07T02:58:15.351Z,101228.17
2022-09-07T03:01:16.442Z,101227.85
2022-09-07T03:04:14.758Z,101224.06
2022-09-07T03:07:11.346Z,101220.10
2022-09-07T03:10:03.905Z,101215.81
2022-09-07T03:12:53.521Z,101210.89
2022-09-07T03:15:43.524Z,101212.60
2022-09-07T03:18:33.281Z,101220.43
2022-09-07T03:21:22.859Z,101221.09
2022-09-07T03:24:13.643Z,101217.73
2022-09-07T03:27:03.370Z,101220.89
2022-09-07T03:29:53.607Z,101219.66
2022-09-07T03:32:43.263Z,101217.97
2022-09-07T03:35:32.837Z,101212.45
2022-09-07T03:38:22.351Z,101209.52
2022-09-07T03:41:12.854Z,101203.11
2022-09-07T03:44:07.749Z,101201.29
2022-09-07T03:46:57.632Z,101200.38
2022-09-07T03:49:49.068Z,101208.21
2022-09-07T03:52:39.679Z,101203.27
2022-09-07T03:55:29.666Z,101198.83
2022-09-07T03:58:19.412Z,101191.77
2022-09-07T04:01:11.236Z,101185.89
2022-09-07T04:04:02.969Z,101184.65
2022-09-07T04:06:52.752Z,101181.58
2022-09-07T04:09:42.740Z,101188.64
2022-09-07T04:12:32.322Z,101195.27
2022-09-07T04:15:22.066Z,101199.92
2022-09-07T04:18:11.811Z,101201.02
2022-09-07T04:21:02.604Z,101207.02
2022-09-07T04:23:52.784Z,101207.85
2022-09-07T04:26:43.693Z,101210.14
2022-09-07T04:29:34.082Z,101208.62
2022-09-07T04:32:23.799Z,101203.00
2022-09-07T04:35:14.274Z,101196.61
2022-09-07T04:38:04.463Z,101197.02
2022-09-07T04:41:01.958Z,101198.30
2022-09-07T04:43:56.171Z,101194.51
2022-09-07T04:46:46.052Z,101194.92
2022-09-07T04:49:35.826Z,101194.83
2022-09-07T04:52:26.248Z,101194.23
2022-09-07T04:55:16.704Z,101195.10
2022-09-07T04:58:06.847Z,101198.44
2022-09-07T05:00:56.940Z,101195.52
2022-09-07T05:03:47.806Z,101194.95
2022-09-07T05:06:37.872Z,101198.43
2022-09-07T05:09:27.507Z,101201.04
2022-09-07T05:12:16.954Z,101203.98
2022-09-07T05:15:07.922Z,101212.35
2022-09-07T05:17:57.477Z,101221.27
2022-09-07T05:20:47.786Z,101222.65
2022-09-07T05:23:38.075Z,101229.66
2022-09-07T05:26:30.224Z,101231.30
2022-09-07T05:32:30.011Z,101240.09
2022-09-07T05:35:20.479Z,101249.57
2022-09-07T05:38:10.446Z,101254.15
2022-09-07T05:41:00.951Z,101254.60
2022-09-07T05:47:01.122Z,101263.21
2022-09-07T05:49:51.986Z,101261.33
2022-09-07T05:52:46.134Z,101260.92
2022-09-07T05:55:35.960Z,101268.95
2022-09-07T05:58:26.086Z,101275.20
2022-09-07T06:01:16.080Z,101276.86
2022-09-07T06:04:05.849Z,101274.80
2022-09-07T06:07:21.490Z,101278.05
2022-09-07T06:13:16.513Z,101284.96
2022-09-07T06:16:08.406Z,101288.43
2022-09-07T06:18:58.841Z,101295.14
2022-09-07T06:21:48.693Z,101298.27
2022-09-07T06:24:38.299Z,101302.79
2022-09-07T06:27:28.398Z,101311.75
2022-09-07T06:30:18.501Z,101321.55
2022-09-07T06:33:08.331Z,101324.67
2022-09-07T06:36:03.371Z,101328.95
2022-09-07T06:38:55.169Z,101338.47
2022-09-07T06:42:00.755Z,101345.61
2022-09-07T06:44:52.694Z,101347.58
2022-09-07T06:47:42.440Z,101340.75
2022-09-07T06:50:33.696Z,101339.49
2022-09-07T06:56:21.495Z,101317.44
2022-09-07T06:59:11.171Z,101303.58
2022-09-07T07:02:00.694Z,101295.79
2022-09-07T07:04:51.155Z,101297.23
2022-09-07T07:07:41.453Z,101289.55
2022-09-07T07:10:31.665Z,101293.92
2022-09-07T07:16:12.907Z,101297.65
2022-09-07T07:19:03.329Z,101303.09
2022-09-07T07:22:23.753Z,101308.38
2022-09-07T07:25:02.459Z,101305.82
2022-09-07T07:27:52.392Z,101305.25
2022-09-07T07:30:42.949Z,101298.17
2022-09-07T07:33:35.376Z,101291.20
2022-09-07T07:36:27.116Z,101287.79
2022-09-07T07:42:27.458Z,101292.65
2022-09-07T07:48:27.620Z,101297.09
2022-09-07T07:51:17.769Z,101295.64
2022-09-07T07:54:07.862Z,101298.62
2022-09-07T07:56:57.477Z,101304.16
2022-09-07T07:59:47.437Z,101309.26
2022-09-07T08:02:37.075Z,101312.27
2022-09-07T08:05:27.340Z,101315.75
2022-09-07T08:08:17.402Z,101310.45
2022-09-07T08:11:09.751Z,101305.08
2022-09-07T08:14:01.412Z,101295.46
2022-09-07T08:16:51.177Z,101297.71
2022-09-07T08:19:41.129Z,101300.42
2022-09-07T08:22:34.298Z,101298.49
2022-09-07T08:25:25.404Z,101304.91
2022-09-07T08:28:15.181Z,101309.88
2022-09-07T08:31:09.316Z,101298.70
2022-09-07T08:33:58.633Z,101295.98
2022-09-07T08:36:48.477Z,101296.64
2022-09-07T08:39:38.710Z,101292.23
2022-09-07T08:42:51.881Z,101288.39
2022-09-07T08:45:45.232Z,101293.52
2022-09-07T08:48:36.514Z,101294.42
2022-09-07T08:51:34.710Z,101293.26
2022-09-07T08:54:24.468Z,101292.44
2022-09-07T08:57:24.177Z,101283.05
2022-09-07T09:00:17.812Z,101270.15
2022-09-07T09:03:31.058Z,101271.61
2022-09-07T09:06:30.620Z,101269.88
2022-09-07T09:09:30.058Z,101272.16
2022-09-07T09:12:36.884Z,101279.57
2022-09-07T09:15:37.115Z,101281.85
2022-09-07T09:18:45.278Z,101287.25
2022-09-07T09:21:36.919Z,101289.23
2022-09-07T09:24:36.316Z,101285.23
2022-09-07T09:27:25.988Z,101280.96
2022-09-07T09:30:18.811Z,101282.66
2022-09-07T09:33:20.686Z,101277.35
2022-09-07T09:36:32.624Z,101275.77
2022-09-07T09:39:31.586Z,101275.02
2022-09-07T09:42:30.852Z,101276.03
2022-09-07T09:45:26.843Z,101277.20
2022-09-07T09:48:22.915Z,101287.10
2022-09-07T09:54:33.078Z,101298.67
2022-09-07T10:04:30.478Z,101304.52
2022-09-07T10:07:23.419Z,101305.65
2022-09-07T10:10:18.525Z,101308.66
2022-09-07T10:13:20.816Z,101317.84
2022-09-07T10:16:12.636Z,101318.96
2022-09-07T10:19:03.224Z,101318.73
2022-09-07T10:21:59.128Z,101314.90
2022-09-07T10:24:49.506Z,101315.09
2022-09-07T10:27:41.310Z,101314.13
2022-09-07T10:30:41.876Z,101312.16
2022-09-07T10:33:43.571Z,101307.54
2022-09-07T10:36:44.072Z,101308.84
2022-09-07T10:39:39.410Z,101299.40
2022-09-07T10:42:33.953Z,101294.55
2022-09-07T10:45:32.494Z,101297.54
2022-09-07T10:48:33.611Z,101293.92
2022-09-07T10:51:29.560Z,101290.65
2022-09-07T10:54:31.619Z,101282.83
2022-09-07T10:57:42.147Z,101278.71
2022-09-07T11:00:44.640Z,101272.35
2022-09-07T11:03:52.312Z,101262.00
2022-09-07T11:06:47.220Z,101256.39
2022-09-07T11:09:55.915Z,101257.44
2022-09-07T11:12:46.901Z,101253.98
2022-09-07T11:15:42.423Z,101251.65
2022-09-07T11:18:36.925Z,101247.06
2022-09-07T11:28:09.658Z,101235.07
2022-09-07T11:31:03.777Z,101240.02
2022-09-07T11:37:16.173Z,101246.65
2022-09-07T11:40:13.864Z,101243.70
2022-09-07T11:43:14.104Z,101247.61
2022-09-07T11:46:07.767Z,101244.56
2022-09-07T11:48:59.091Z,101241.46
2022-09-07T11:51:54.134Z,101246.13
2022-09-07T11:54:50.517Z,101245.83
2022-09-07T11:57:58.557Z,101247.75
2022-09-07T12:00:57.135Z,101246.27
2022-09-07T12:04:25.072Z,101247.38
2022-09-07T12:07:39.640Z,101241.66
2022-09-07T12:10:55.063Z,101239.27
2022-09-07T12:14:04.022Z,101239.89
2022-09-07T12:17:16.563Z,101238.16
2022-09-07T12:20:17.977Z,101233.45
2022-09-07T12:23:21.428Z,101230.38
2022-09-07T12:26:50.598Z,101227.44
2022-09-07T12:29:45.091Z,101226.41
2022-09-07T12:33:19.944Z,101224.33
2022-09-07T12:36:50.625Z,101219.74
2022-09-07T12:39:44.123Z,101217.52
2022-09-07T12:42:34.333Z,101221.85
2022-09-07T12:46:00.878Z,101217.15
2022-09-07T12:49:01.596Z,101219.41
2022-09-07T12:52:06.845Z,101220.27
2022-09-07T12:55:27.918Z,101222.27
2022-09-07T12:58:32.884Z,101220.86
2022-09-07T13:01:36.791Z,101214.63
2022-09-07T13:04:56.311Z,101215.52
2022-09-07T13:08:30.376Z,101220.15
2022-09-07T13:11:33.010Z,101217.23
2022-09-07T13:14:26.868Z,101217.95
2022-09-07T13:17:41.645Z,101213.58
2022-09-07T13:20:37.577Z,101200.54
2022-09-07T13:23:30.028Z,101191.73
2022-09-07T13:26:57.810Z,101182.51
2022-09-07T13:29:53.294Z,101187.66
2022-09-07T13:35:56.745Z,101192.21
2022-09-07T13:38:47.721Z,101189.16
2022-09-07T13:41:44.093Z,101180.00
2022-09-07T13:44:35.885Z,101174.62
2022-09-07T13:47:36.708Z,101167.58
2022-09-07T13:50:37.882Z,101161.31
2022-09-07T13:53:39.071Z,101159.70
2022-09-07T13:56:41.252Z,101155.80
2022-09-07T13:59:35.423Z,101150.52
2022-09-07T14:02:29.419Z,101142.34
2022-09-07T14:05:22.833Z,101139.42
2022-09-07T14:08:28.540Z,101135.92
2022-09-07T14:11:24.662Z,101139.79
2022-09-07T14:14:21.119Z,101143.08
2022-09-07T14:17:15.398Z,101145.05
2022-09-07T14:20:07.412Z,101146.98
2022-09-07T14:22:57.305Z,101157.08
2022-09-07T14:28:58.146Z,101156.80
2022-09-07T14:31:48.037Z,101148.84
2022-09-07T14:34:39.398Z,101152.30
2022-09-07T14:37:29.737Z,101156.64
2022-09-07T14:40:23.237Z,101164.67
2022-09-07T14:43:29.993Z,101161.40
2022-09-07T14:46:22.681Z,101157.71
2022-09-07T14:49:22.093Z,101154.40
2022-09-07T14:52:21.323Z,101152.52
2022-09-07T14:55:30.980Z,101148.11
2022-09-07T14:58:31.385Z,101153.16
2022-09-07T15:01:40.328Z,101151.96
2022-09-07T15:04:34.546Z,101145.13
2022-09-07T15:07:41.083Z,101153.07
2022-09-07T15:10:35.360Z,101151.54
2022-09-07T15:13:32.385Z,101147.13
2022-09-07T15:16:27.036Z,101140.54
2022-09-07T15:19:32.088Z,101135.02
2022-09-07T15:22:22.670Z,101124.08
2022-09-07T15:25:15.075Z,101122.31
2022-09-07T15:28:05.852Z,101116.96
2022-09-07T15:34:10.033Z,101117.54
2022-09-07T15:37:01.739Z,101119.41
2022-09-07T15:39:53.014Z,101119.95
2022-09-07T15:45:53.496Z,101117.98
2022-09-07T15:48:52.359Z,101115.62
2022-09-07T15:54:56.703Z,101102.20
2022-09-07T15:57:48.755Z,101088.46
2022-09-07T16:00:40.439Z,101084.42
2022-09-07T16:03:33.825Z,101078.62
2022-09-07T16:06:24.816Z,101076.77
2022-09-07T16:09:15.228Z,101076.48
2022-09-07T16:15:16.659Z,101082.48
2022-09-07T16:18:06.865Z,101081.18
2022-09-07T16:20:56.700Z,101073.52
2022-09-07T16:23:48.832Z,101072.33
2022-09-07T16:26:38.585Z,101077.54
2022-09-07T16:29:28.628Z,101076.27
2022-09-07T16:35:28.683Z,101079.66
2022-09-07T16:41:31.409Z,101072.23
2022-09-07T16:44:21.593Z,101071.88
2022-09-07T16:47:12.864Z,101068.15
2022-09-07T16:50:02.581Z,101069.27
2022-09-07T16:52:53.480Z,101069.89
2022-09-07T16:55:43.323Z,101073.16
2022-09-07T16:58:36.007Z,101072.45
2022-09-07T17:01:28.429Z,101072.90
2022-09-07T17:04:19.100Z,101074.64
2022-09-07T17:07:08.798Z,101073.84
2022-09-07T17:09:58.762Z,101069.35
2022-09-07T17:12:50.151Z,101063.84
2022-09-07T17:15:39.994Z,101060.33
2022-09-07T17:21:41.887Z,101053.04
2022-09-07T17:24:32.552Z,101053.02
2022-09-07T17:27:22.418Z,101054.52
2022-09-07T17:30:14.022Z,101044.15
2022-09-07T17:33:04.136Z,101039.65
2022-09-07T17:35:55.245Z,101031.61
2022-09-07T17:41:55.467Z,101034.27
2022-09-07T17:44:44.999Z,101036.98
2022-09-07T17:47:34.658Z,101033.65
2022-09-07T17:50:24.452Z,101034.02
2022-09-07T17:53:14.669Z,101028.76
2022-09-07T17:56:05.094Z,101023.91
2022-09-07T18:00:10.743Z,101024.11
2022-09-07T18:02:05.204Z,101025.72
2022-09-07T18:04:55.321Z,101028.96
2022-09-07T18:07:45.148Z,101031.08
2022-09-07T18:13:51.714Z,101035.00
2022-09-07T18:16:41.698Z,101038.59
2022-09-07T18:19:31.753Z,101042.95
2022-09-07T18:22:21.655Z,101042.52
2022-09-07T18:25:12.468Z,101045.92
2022-09-07T18:31:13.605Z,101051.59
2022-09-07T18:34:04.132Z,101051.66
2022-09-07T18:36:55.234Z,101050.23
2022-09-07T18:39:47.042Z,101052.02
2022-09-07T18:42:36.474Z,101054.57
2022-09-07T18:45:27.563Z,101054.90
2022-09-07T18:48:18.286Z,101051.20
2022-09-07T18:51:09.788Z,101052.92
2022-09-07T18:54:00.200Z,101060.43
2022-09-07T18:56:49.978Z,101065.23
2022-09-07T18:59:41.017Z,101065.23
2022-09-07T19:02:31.138Z,101071.73
2022-09-07T19:08:35.468Z,101070.98
2022-09-07T19:11:27.966Z,101066.89
2022-09-07T19:14:17.813Z,101060.80
2022-09-07T19:17:08.516Z,101064.65
2022-09-07T19:19:58.155Z,101070.99
2022-09-07T19:22:47.895Z,101069.89
2022-09-07T19:25:42.758Z,101065.38
2022-09-07T19:28:33.126Z,101060.70
2022-09-07T19:31:23.658Z,101063.02
2022-09-07T19:34:14.223Z,101061.27
2022-09-07T19:37:05.122Z,101064.69
2022-09-07T19:39:55.428Z,101064.35
2022-09-07T19:42:45.383Z,101056.60
2022-09-07T19:45:38.001Z,101053.54
2022-09-07T19:48:28.061Z,101050.00
2022-09-07T19:51:19.941Z,101037.79
2022-09-07T19:54:09.879Z,101040.98
2022-09-07T19:56:59.599Z,101049.20
2022-09-07T19:59:49.556Z,101045.05
2022-09-07T20:02:39.224Z,101044.62
2022-09-07T20:05:31.109Z,101043.73
2022-09-07T20:08:21.447Z,101041.89
2022-09-07T20:11:13.420Z,101040.65
2022-09-07T20:14:03.858Z,101045.79
2022-09-07T20:16:53.521Z,101052.05
2022-09-07T20:19:43.306Z,101051.51
2022-09-07T20:22:32.884Z,101056.89
2022-09-07T20:25:23.202Z,101046.34
2022-09-07T20:28:14.742Z,101041.45
2022-09-07T20:31:08.397Z,101035.13
2022-09-07T20:33:58.232Z,101037.39
2022-09-07T20:36:49.813Z,101040.08
2022-09-07T20:39:40.408Z,101038.14
2022-09-07T20:42:30.930Z,101036.78
2022-09-07T20:45:20.776Z,101030.94
2022-09-07T20:48:10.784Z,101030.83
2022-09-07T20:51:06.623Z,101033.55
2022-09-07T20:53:56.862Z,101034.75
2022-09-07T20:56:46.204Z,101042.89
2022-09-07T20:59:36.314Z,101042.45
2022-09-07T21:02:26.121Z,101041.80
2022-09-07T21:05:16.225Z,101041.02
2022-09-07T21:08:05.919Z,101040.14
2022-09-07T21:10:56.285Z,101039.46
2022-09-07T21:13:46.783Z,101033.05
2022-09-07T21:16:37.131Z,101032.40
2022-09-07T21:19:26.681Z,101029.71
2022-09-07T21:22:16.514Z,101025.21
2022-09-07T21:25:07.031Z,101026.31
2022-09-07T21:27:57.361Z,101022.56
2022-09-07T21:30:56.031Z,101030.14
2022-09-07T21:33:45.930Z,101029.70
2022-09-07T21:36:35.717Z,101025.63
2022-09-07T21:39:25.476Z,101024.64
2022-09-07T21:42:15.743Z,101026.98
2022-09-07T21:45:07.085Z,101024.33
2022-09-07T21:47:56.529Z,101026.79
2022-09-07T21:50:46.964Z,101023.23
2022-09-07T21:53:37.488Z,101017.41
2022-09-07T21:56:28.218Z,101004.48
2022-09-07T21:59:18.190Z,100998.14
2022-09-07T22:02:08.234Z,100993.75
2022-09-07T22:04:57.819Z,100988.26
2022-09-07T22:07:47.408Z,100983.66
2022-09-07T22:10:38.184Z,100977.40
2022-09-07T22:13:27.975Z,100977.27
2022-09-07T22:16:18.220Z,100970.63
2022-09-07T22:19:08.753Z,100969.89
2022-09-07T22:21:58.557Z,100974.73
2022-09-07T22:24:48.720Z,100974.98
2022-09-07T22:27:38.955Z,100971.89
2022-09-07T22:30:28.702Z,100969.55
2022-09-07T22:33:19.018Z,100966.04
2022-09-07T22:36:15.250Z,100959.86
2022-09-07T22:39:09.963Z,100959.85
2022-09-07T22:42:00.041Z,100955.98
2022-09-07T22:44:50.084Z,100950.39
2022-09-07T22:47:40.006Z,100947.02
2022-09-07T22:50:29.921Z,100947.00
2022-09-07T22:53:19.935Z,100935.98
2022-09-07T22:56:12.554Z,100932.73
2022-09-07T22:59:03.612Z,100932.95
2022-09-07T23:01:53.694Z,100928.05
2022-09-07T23:04:43.921Z,100924.19
2022-09-07T23:07:34.133Z,100915.11
2022-09-07T23:10:23.884Z,100896.65
2022-09-07T23:13:16.812Z,100886.38
2022-09-07T23:16:11.086Z,100880.91
2022-09-07T23:19:02.218Z,100892.20
2022-09-07T23:21:52.022Z,100895.33
2022-09-07T23:24:41.971Z,100902.16
2022-09-07T23:27:31.800Z,100917.47
2022-09-07T23:30:22.022Z,100912.49
2022-09-07T23:33:11.961Z,100902.48
2022-09-07T23:36:04.225Z,100913.36
2022-09-07T23:38:57.000Z,100902.78
2022-09-07T23:41:46.805Z,100906.23
2022-09-07T23:44:36.966Z,100909.57
2022-09-07T23:47:27.353Z,100909.61
2022-09-07T23:50:16.802Z,100912.34
2022-09-07T23:53:07.180Z,100906.95
2022-09-07T23:55:57.178Z,100906.60
2022-09-07T23:58:47.244Z,100909.60
